Terminal Aerodrome Forecast
Issued by NWS

Home | Current Version | Previous Version | Text Only | Print | Product List | Glossary On
Versions: 1 2 3 4 5 6 7 8 9 10 11 12 13 14
172
FTUS46 KSEW 041729
TAFBLI
TAF
KBLI 041729Z 0418/0518 30006KT P6SM SCT012 OVC050
      TEMPO 0418/0421 5SM -RA BR BKN012 OVC040
     FM050500 VRB03KT P6SM SCT025 BKN050
      TEMPO 0512/0516 BKN025 OVC050=

USA.gov is the U.S. government's official web portal to all federal, state and local government web resources and services.